sensor_id;sensor_type;location;lat;lon;timestamp;P1;durP1;ratioP1;P2;durP2;ratioP2
66521;SDS011;53349;53.538;8.584;2024-03-02T00:00:49;17.80;;;8.70;;
66521;SDS011;53349;53.538;8.584;2024-03-02T00:03:15;18.67;;;8.87;;
66521;SDS011;53349;53.538;8.584;2024-03-02T00:05:40;17.23;;;8.27;;
66521;SDS011;53349;53.538;8.584;2024-03-02T00:08:05;18.90;;;8.45;;
66521;SDS011;53349;53.538;8.584;2024-03-02T00:10:36;18.65;;;8.70;;
66521;SDS011;53349;53.538;8.584;2024-03-02T00:13:02;19.17;;;8.75;;
66521;SDS011;53349;53.538;8.584;2024-03-02T00:18:02;21.70;;;8.23;;
66521;SDS011;53349;53.538;8.584;2024-03-02T00:20:28;17.63;;;8.75;;
66521;SDS011;53349;53.538;8.584;2024-03-02T00:22:55;22.40;;;9.10;;
66521;SDS011;53349;53.538;8.584;2024-03-02T00:25:25;20.25;;;9.45;;
66521;SDS011;53349;53.538;8.584;2024-03-02T00:27:50;19.10;;;8.80;;
66521;SDS011;53349;53.538;8.584;2024-03-02T00:30:29;18.77;;;8.90;;
66521;SDS011;53349;53.538;8.584;2024-03-02T00:32:59;19.63;;;9.13;;
66521;SDS011;53349;53.538;8.584;2024-03-02T00:35:25;20.70;;;8.80;;
66521;SDS011;53349;53.538;8.584;2024-03-02T00:37:50;18.10;;;8.73;;
66521;SDS011;53349;53.538;8.584;2024-03-02T00:40:15;19.67;;;9.50;;
66521;SDS011;53349;53.538;8.584;2024-03-02T00:42:41;19.65;;;8.98;;
66521;SDS011;53349;53.538;8.584;2024-03-02T00:45:09;18.53;;;8.97;;
66521;SDS011;53349;53.538;8.584;2024-03-02T00:47:44;20.73;;;8.88;;
66521;SDS011;53349;53.538;8.584;2024-03-02T00:50:09;21.55;;;9.25;;
66521;SDS011;53349;53.538;8.584;2024-03-02T00:52:38;26.20;;;10.02;;
66521;SDS011;53349;53.538;8.584;2024-03-02T00:55:03;20.07;;;8.90;;
66521;SDS011;53349;53.538;8.584;2024-03-02T00:57:32;22.43;;;9.37;;
66521;SDS011;53349;53.538;8.584;2024-03-02T00:59:58;17.98;;;8.52;;
66521;SDS011;53349;53.538;8.584;2024-03-02T01:02:24;23.47;;;10.03;;
66521;SDS011;53349;53.538;8.584;2024-03-02T01:04:49;21.67;;;9.10;;
66521;SDS011;53349;53.538;8.584;2024-03-02T01:07:14;20.77;;;8.87;;
66521;SDS011;53349;53.538;8.584;2024-03-02T01:09:39;20.33;;;9.33;;
66521;SDS011;53349;53.538;8.584;2024-03-02T01:12:07;17.83;;;8.80;;
66521;SDS011;53349;53.538;8.584;2024-03-02T01:14:33;20.48;;;8.95;;
66521;SDS011;53349;53.538;8.584;2024-03-02T01:16:58;20.47;;;9.27;;
66521;SDS011;53349;53.538;8.584;2024-03-02T01:19:23;23.80;;;9.50;;
66521;SDS011;53349;53.538;8.584;2024-03-02T01:21:49;22.73;;;9.77;;
66521;SDS011;53349;53.538;8.584;2024-03-02T01:24:14;20.37;;;9.87;;
66521;SDS011;53349;53.538;8.584;2024-03-02T01:26:39;23.97;;;9.50;;
66521;SDS011;53349;53.538;8.584;2024-03-02T01:29:05;21.92;;;9.60;;
66521;SDS011;53349;53.538;8.584;2024-03-02T01:31:31;23.30;;;9.50;;
66521;SDS011;53349;53.538;8.584;2024-03-02T01:34:00;21.27;;;9.68;;
66521;SDS011;53349;53.538;8.584;2024-03-02T01:36:25;19.97;;;8.83;;
66521;SDS011;53349;53.538;8.584;2024-03-02T01:38:51;21.70;;;10.07;;
66521;SDS011;53349;53.538;8.584;2024-03-02T01:41:16;21.77;;;9.40;;
66521;SDS011;53349;53.538;8.584;2024-03-02T01:43:41;20.57;;;9.43;;
66521;SDS011;53349;53.538;8.584;2024-03-02T01:46:07;22.53;;;8.90;;
66521;SDS011;53349;53.538;8.584;2024-03-02T01:48:33;21.33;;;9.40;;
66521;SDS011;53349;53.538;8.584;2024-03-02T01:50:58;19.97;;;8.63;;
66521;SDS011;53349;53.538;8.584;2024-03-02T01:53:23;22.23;;;9.40;;
66521;SDS011;53349;53.538;8.584;2024-03-02T01:55:48;19.87;;;8.83;;
66521;SDS011;53349;53.538;8.584;2024-03-02T01:58:14;19.50;;;9.33;;
66521;SDS011;53349;53.538;8.584;2024-03-02T02:00:39;20.83;;;9.43;;
66521;SDS011;53349;53.538;8.584;2024-03-02T02:03:04;22.87;;;9.90;;
66521;SDS011;53349;53.538;8.584;2024-03-02T02:05:29;21.67;;;9.17;;
66521;SDS011;53349;53.538;8.584;2024-03-02T02:07:55;19.20;;;9.05;;
66521;SDS011;53349;53.538;8.584;2024-03-02T02:10:20;18.50;;;8.77;;
66521;SDS011;53349;53.538;8.584;2024-03-02T02:12:46;19.75;;;9.07;;
66521;SDS011;53349;53.538;8.584;2024-03-02T02:15:24;20.83;;;9.25;;
66521;SDS011;53349;53.538;8.584;2024-03-02T02:17:49;20.08;;;9.25;;
66521;SDS011;53349;53.538;8.584;2024-03-02T02:20:14;19.67;;;9.17;;
66521;SDS011;53349;53.538;8.584;2024-03-02T02:22:40;19.37;;;8.77;;
66521;SDS011;53349;53.538;8.584;2024-03-02T02:25:08;17.80;;;8.73;;
66521;SDS011;53349;53.538;8.584;2024-03-02T02:27:33;19.63;;;8.73;;
66521;SDS011;53349;53.538;8.584;2024-03-02T02:29:58;19.67;;;8.67;;
66521;SDS011;53349;53.538;8.584;2024-03-02T02:32:24;18.58;;;9.00;;
66521;SDS011;53349;53.538;8.584;2024-03-02T02:34:52;20.27;;;8.70;;
66521;SDS011;53349;53.538;8.584;2024-03-02T02:37:17;21.88;;;9.15;;
66521;SDS011;53349;53.538;8.584;2024-03-02T02:39:42;19.03;;;9.17;;
66521;SDS011;53349;53.538;8.584;2024-03-02T02:42:08;19.63;;;9.27;;
66521;SDS011;53349;53.538;8.584;2024-03-02T02:44:33;18.70;;;8.20;;
66521;SDS011;53349;53.538;8.584;2024-03-02T02:46:59;20.43;;;9.20;;
66521;SDS011;53349;53.538;8.584;2024-03-02T02:49:24;18.13;;;8.70;;
66521;SDS011;53349;53.538;8.584;2024-03-02T02:51:49;19.58;;;8.40;;
66521;SDS011;53349;53.538;8.584;2024-03-02T02:54:14;18.23;;;8.40;;
66521;SDS011;53349;53.538;8.584;2024-03-02T02:56:40;20.58;;;9.02;;
66521;SDS011;53349;53.538;8.584;2024-03-02T02:59:05;21.08;;;8.70;;
66521;SDS011;53349;53.538;8.584;2024-03-02T03:01:30;19.83;;;9.13;;
66521;SDS011;53349;53.538;8.584;2024-03-02T03:03:55;21.63;;;9.02;;
66521;SDS011;53349;53.538;8.584;2024-03-02T03:06:21;19.83;;;8.65;;
66521;SDS011;53349;53.538;8.584;2024-03-02T03:08:46;21.27;;;8.50;;
66521;SDS011;53349;53.538;8.584;2024-03-02T03:11:11;19.97;;;8.60;;
66521;SDS011;53349;53.538;8.584;2024-03-02T03:13:36;20.23;;;8.90;;
66521;SDS011;53349;53.538;8.584;2024-03-02T03:16:02;19.75;;;8.60;;
66521;SDS011;53349;53.538;8.584;2024-03-02T03:18:27;16.83;;;8.23;;
66521;SDS011;53349;53.538;8.584;2024-03-02T03:20:52;19.73;;;9.17;;
66521;SDS011;53349;53.538;8.584;2024-03-02T03:23:18;20.27;;;8.87;;
66521;SDS011;53349;53.538;8.584;2024-03-02T03:25:43;20.37;;;9.30;;
66521;SDS011;53349;53.538;8.584;2024-03-02T03:28:08;20.10;;;8.73;;
66521;SDS011;53349;53.538;8.584;2024-03-02T03:30:34;20.67;;;9.07;;
66521;SDS011;53349;53.538;8.584;2024-03-02T03:32:59;16.20;;;8.50;;
66521;SDS011;53349;53.538;8.584;2024-03-02T03:35:24;21.00;;;9.13;;
66521;SDS011;53349;53.538;8.584;2024-03-02T03:37:49;20.23;;;8.63;;
66521;SDS011;53349;53.538;8.584;2024-03-02T03:40:15;18.43;;;8.60;;
66521;SDS011;53349;53.538;8.584;2024-03-02T03:42:40;19.73;;;8.67;;
66521;SDS011;53349;53.538;8.584;2024-03-02T03:45:06;20.13;;;8.73;;
66521;SDS011;53349;53.538;8.584;2024-03-02T03:47:31;19.58;;;8.18;;
66521;SDS011;53349;53.538;8.584;2024-03-02T03:49:56;19.00;;;8.97;;
66521;SDS011;53349;53.538;8.584;2024-03-02T03:52:21;18.80;;;8.87;;
66521;SDS011;53349;53.538;8.584;2024-03-02T03:54:47;18.77;;;8.97;;
66521;SDS011;53349;53.538;8.584;2024-03-02T03:57:12;19.33;;;8.73;;
66521;SDS011;53349;53.538;8.584;2024-03-02T03:59:37;17.27;;;8.13;;
66521;SDS011;53349;53.538;8.584;2024-03-02T04:02:03;23.47;;;9.83;;
66521;SDS011;53349;53.538;8.584;2024-03-02T04:04:28;25.42;;;10.30;;
66521;SDS011;53349;53.538;8.584;2024-03-02T04:06:54;20.58;;;8.95;;
66521;SDS011;53349;53.538;8.584;2024-03-02T04:09:19;23.70;;;9.53;;
66521;SDS011;53349;53.538;8.584;2024-03-02T04:11:44;19.00;;;8.47;;
66521;SDS011;53349;53.538;8.584;2024-03-02T04:14:10;23.70;;;9.40;;
66521;SDS011;53349;53.538;8.584;2024-03-02T04:16:35;20.93;;;9.40;;
66521;SDS011;53349;53.538;8.584;2024-03-02T04:19:06;22.23;;;10.20;;
66521;SDS011;53349;53.538;8.584;2024-03-02T04:21:31;20.37;;;9.27;;
66521;SDS011;53349;53.538;8.584;2024-03-02T04:23:56;21.63;;;8.90;;
66521;SDS011;53349;53.538;8.584;2024-03-02T04:26:22;22.53;;;9.37;;
66521;SDS011;53349;53.538;8.584;2024-03-02T04:28:47;22.40;;;9.13;;
66521;SDS011;53349;53.538;8.584;2024-03-02T04:31:12;20.67;;;9.60;;
66521;SDS011;53349;53.538;8.584;2024-03-02T04:33:37;20.87;;;9.20;;
66521;SDS011;53349;53.538;8.584;2024-03-02T04:36:03;20.43;;;9.10;;
66521;SDS011;53349;53.538;8.584;2024-03-02T04:38:28;21.10;;;10.07;;
66521;SDS011;53349;53.538;8.584;2024-03-02T04:40:53;20.30;;;9.13;;
66521;SDS011;53349;53.538;8.584;2024-03-02T04:43:18;19.43;;;9.20;;
66521;SDS011;53349;53.538;8.584;2024-03-02T04:45:44;21.70;;;9.37;;
66521;SDS011;53349;53.538;8.584;2024-03-02T04:48:09;21.00;;;8.70;;
66521;SDS011;53349;53.538;8.584;2024-03-02T04:50:34;22.63;;;9.30;;
66521;SDS011;53349;53.538;8.584;2024-03-02T04:53:00;21.20;;;9.37;;
66521;SDS011;53349;53.538;8.584;2024-03-02T04:55:25;18.92;;;8.73;;
66521;SDS011;53349;53.538;8.584;2024-03-02T04:57:51;22.67;;;10.18;;
66521;SDS011;53349;53.538;8.584;2024-03-02T05:00:16;22.63;;;9.57;;
66521;SDS011;53349;53.538;8.584;2024-03-02T05:02:45;21.37;;;9.20;;
66521;SDS011;53349;53.538;8.584;2024-03-02T05:05:10;21.08;;;8.38;;
66521;SDS011;53349;53.538;8.584;2024-03-02T05:07:35;17.97;;;7.73;;
66521;SDS011;53349;53.538;8.584;2024-03-02T05:10:03;18.10;;;8.77;;
66521;SDS011;53349;53.538;8.584;2024-03-02T05:12:28;21.93;;;8.97;;
66521;SDS011;53349;53.538;8.584;2024-03-02T05:14:53;21.10;;;8.40;;
66521;SDS011;53349;53.538;8.584;2024-03-02T05:17:18;19.20;;;8.53;;
66521;SDS011;53349;53.538;8.584;2024-03-02T05:19:44;19.03;;;8.43;;
66521;SDS011;53349;53.538;8.584;2024-03-02T05:22:09;21.03;;;8.80;;
66521;SDS011;53349;53.538;8.584;2024-03-02T05:24:34;20.53;;;8.40;;
66521;SDS011;53349;53.538;8.584;2024-03-02T05:26:59;19.13;;;7.37;;
66521;SDS011;53349;53.538;8.584;2024-03-02T05:29:24;18.00;;;7.73;;
66521;SDS011;53349;53.538;8.584;2024-03-02T05:31:50;17.40;;;8.10;;
66521;SDS011;53349;53.538;8.584;2024-03-02T05:34:15;19.00;;;8.40;;
66521;SDS011;53349;53.538;8.584;2024-03-02T05:36:40;18.43;;;7.93;;
66521;SDS011;53349;53.538;8.584;2024-03-02T05:39:05;19.53;;;8.07;;
66521;SDS011;53349;53.538;8.584;2024-03-02T05:41:30;19.30;;;8.37;;
66521;SDS011;53349;53.538;8.584;2024-03-02T05:43:56;16.90;;;7.27;;
66521;SDS011;53349;53.538;8.584;2024-03-02T05:46:21;20.50;;;8.13;;
66521;SDS011;53349;53.538;8.584;2024-03-02T05:48:46;18.40;;;8.33;;
66521;SDS011;53349;53.538;8.584;2024-03-02T05:51:11;17.37;;;8.13;;
66521;SDS011;53349;53.538;8.584;2024-03-02T05:53:37;20.23;;;8.10;;
66521;SDS011;53349;53.538;8.584;2024-03-02T05:56:02;18.13;;;7.80;;
66521;SDS011;53349;53.538;8.584;2024-03-02T05:58:27;17.80;;;7.93;;
66521;SDS011;53349;53.538;8.584;2024-03-02T06:00:52;17.83;;;7.87;;
66521;SDS011;53349;53.538;8.584;2024-03-02T06:03:17;16.73;;;7.90;;
66521;SDS011;53349;53.538;8.584;2024-03-02T06:05:43;17.00;;;7.63;;
66521;SDS011;53349;53.538;8.584;2024-03-02T06:08:08;18.13;;;8.27;;
66521;SDS011;53349;53.538;8.584;2024-03-02T06:10:33;15.80;;;7.80;;
66521;SDS011;53349;53.538;8.584;2024-03-02T06:12:58;14.80;;;7.07;;
66521;SDS011;53349;53.538;8.584;2024-03-02T06:15:24;16.70;;;8.13;;
66521;SDS011;53349;53.538;8.584;2024-03-02T06:17:49;16.97;;;7.60;;
66521;SDS011;53349;53.538;8.584;2024-03-02T06:20:14;18.77;;;8.33;;
66521;SDS011;53349;53.538;8.584;2024-03-02T06:22:39;16.30;;;7.67;;
66521;SDS011;53349;53.538;8.584;2024-03-02T06:25:04;19.27;;;7.67;;
66521;SDS011;53349;53.538;8.584;2024-03-02T06:27:30;16.83;;;8.57;;
66521;SDS011;53349;53.538;8.584;2024-03-02T06:29:55;18.97;;;7.87;;
66521;SDS011;53349;53.538;8.584;2024-03-02T06:32:20;18.70;;;8.07;;
66521;SDS011;53349;53.538;8.584;2024-03-02T06:34:45;14.10;;;6.80;;
66521;SDS011;53349;53.538;8.584;2024-03-02T06:37:10;15.47;;;7.47;;
66521;SDS011;53349;53.538;8.584;2024-03-02T06:39:36;19.07;;;7.77;;
66521;SDS011;53349;53.538;8.584;2024-03-02T06:42:01;22.80;;;8.17;;
66521;SDS011;53349;53.538;8.584;2024-03-02T06:44:26;17.37;;;7.57;;
66521;SDS011;53349;53.538;8.584;2024-03-02T06:46:51;16.80;;;7.30;;
66521;SDS011;53349;53.538;8.584;2024-03-02T06:49:17;18.80;;;8.00;;
66521;SDS011;53349;53.538;8.584;2024-03-02T06:51:42;17.73;;;7.43;;
66521;SDS011;53349;53.538;8.584;2024-03-02T06:54:07;19.13;;;7.93;;
66521;SDS011;53349;53.538;8.584;2024-03-02T06:56:32;20.10;;;8.63;;
66521;SDS011;53349;53.538;8.584;2024-03-02T06:58:57;15.23;;;6.60;;
66521;SDS011;53349;53.538;8.584;2024-03-02T07:01:23;19.17;;;8.40;;
66521;SDS011;53349;53.538;8.584;2024-03-02T07:03:48;16.47;;;7.27;;
66521;SDS011;53349;53.538;8.584;2024-03-02T07:06:13;17.27;;;7.70;;
66521;SDS011;53349;53.538;8.584;2024-03-02T07:08:39;16.20;;;8.23;;
66521;SDS011;53349;53.538;8.584;2024-03-02T07:11:04;15.70;;;7.27;;
66521;SDS011;53349;53.538;8.584;2024-03-02T07:13:29;17.33;;;7.78;;
66521;SDS011;53349;53.538;8.584;2024-03-02T07:15:54;17.47;;;7.63;;
66521;SDS011;53349;53.538;8.584;2024-03-02T07:18:20;16.83;;;7.68;;
66521;SDS011;53349;53.538;8.584;2024-03-02T07:20:45;18.08;;;7.95;;
66521;SDS011;53349;53.538;8.584;2024-03-02T07:23:10;15.82;;;7.22;;
66521;SDS011;53349;53.538;8.584;2024-03-02T07:25:35;20.98;;;8.15;;
66521;SDS011;53349;53.538;8.584;2024-03-02T07:28:00;17.13;;;8.07;;
66521;SDS011;53349;53.538;8.584;2024-03-02T07:30:26;16.52;;;7.63;;
66521;SDS011;53349;53.538;8.584;2024-03-02T07:32:51;19.07;;;8.27;;
66521;SDS011;53349;53.538;8.584;2024-03-02T07:35:16;17.63;;;7.63;;
66521;SDS011;53349;53.538;8.584;2024-03-02T07:37:42;16.97;;;7.97;;
66521;SDS011;53349;53.538;8.584;2024-03-02T07:40:07;16.83;;;7.93;;
66521;SDS011;53349;53.538;8.584;2024-03-02T07:42:33;18.20;;;8.03;;
66521;SDS011;53349;53.538;8.584;2024-03-02T07:44:58;16.60;;;7.83;;
66521;SDS011;53349;53.538;8.584;2024-03-02T07:47:23;21.07;;;8.87;;
66521;SDS011;53349;53.538;8.584;2024-03-02T07:49:48;19.23;;;8.60;;
66521;SDS011;53349;53.538;8.584;2024-03-02T07:52:14;18.13;;;8.07;;
66521;SDS011;53349;53.538;8.584;2024-03-02T07:54:39;17.10;;;8.45;;
66521;SDS011;53349;53.538;8.584;2024-03-02T07:57:04;18.90;;;8.73;;
66521;SDS011;53349;53.538;8.584;2024-03-02T07:59:30;18.03;;;8.40;;
66521;SDS011;53349;53.538;8.584;2024-03-02T08:01:55;19.53;;;8.70;;
66521;SDS011;53349;53.538;8.584;2024-03-02T08:04:20;16.67;;;7.40;;
66521;SDS011;53349;53.538;8.584;2024-03-02T08:06:45;19.70;;;8.37;;
66521;SDS011;53349;53.538;8.584;2024-03-02T08:09:10;18.97;;;8.90;;
66521;SDS011;53349;53.538;8.584;2024-03-02T08:11:36;20.63;;;9.13;;
66521;SDS011;53349;53.538;8.584;2024-03-02T08:14:01;18.93;;;8.30;;
66521;SDS011;53349;53.538;8.584;2024-03-02T08:16:26;16.37;;;7.63;;
66521;SDS011;53349;53.538;8.584;2024-03-02T08:18:51;18.73;;;8.47;;
66521;SDS011;53349;53.538;8.584;2024-03-02T08:21:17;20.10;;;7.87;;
66521;SDS011;53349;53.538;8.584;2024-03-02T08:23:43;16.88;;;8.88;;
66521;SDS011;53349;53.538;8.584;2024-03-02T08:26:08;15.37;;;7.50;;
66521;SDS011;53349;53.538;8.584;2024-03-02T08:28:34;17.07;;;7.87;;
66521;SDS011;53349;53.538;8.584;2024-03-02T08:30:59;18.33;;;7.83;;
66521;SDS011;53349;53.538;8.584;2024-03-02T08:33:24;20.73;;;8.73;;
66521;SDS011;53349;53.538;8.584;2024-03-02T08:35:50;20.00;;;8.40;;
66521;SDS011;53349;53.538;8.584;2024-03-02T08:38:15;17.52;;;7.82;;
66521;SDS011;53349;53.538;8.584;2024-03-02T08:40:40;17.77;;;8.23;;
66521;SDS011;53349;53.538;8.584;2024-03-02T08:43:06;19.70;;;8.17;;
66521;SDS011;53349;53.538;8.584;2024-03-02T08:45:31;18.87;;;8.30;;
66521;SDS011;53349;53.538;8.584;2024-03-02T08:47:57;19.83;;;7.70;;
66521;SDS011;53349;53.538;8.584;2024-03-02T08:50:22;18.33;;;7.93;;
66521;SDS011;53349;53.538;8.584;2024-03-02T08:52:47;17.80;;;7.63;;
66521;SDS011;53349;53.538;8.584;2024-03-02T08:55:12;19.10;;;8.20;;
66521;SDS011;53349;53.538;8.584;2024-03-02T08:57:38;18.10;;;8.83;;
66521;SDS011;53349;53.538;8.584;2024-03-02T09:00:03;17.88;;;8.48;;
66521;SDS011;53349;53.538;8.584;2024-03-02T09:02:28;19.37;;;8.37;;
66521;SDS011;53349;53.538;8.584;2024-03-02T09:04:54;17.33;;;8.13;;
66521;SDS011;53349;53.538;8.584;2024-03-02T09:07:19;18.20;;;8.73;;
66521;SDS011;53349;53.538;8.584;2024-03-02T09:09:44;18.87;;;8.73;;
66521;SDS011;53349;53.538;8.584;2024-03-02T09:12:10;19.23;;;8.90;;
66521;SDS011;53349;53.538;8.584;2024-03-02T09:14:35;16.30;;;7.87;;
66521;SDS011;53349;53.538;8.584;2024-03-02T09:17:01;16.58;;;7.93;;
66521;SDS011;53349;53.538;8.584;2024-03-02T09:19:26;16.67;;;8.07;;
66521;SDS011;53349;53.538;8.584;2024-03-02T09:21:51;17.47;;;7.80;;
66521;SDS011;53349;53.538;8.584;2024-03-02T09:24:16;17.30;;;7.57;;
66521;SDS011;53349;53.538;8.584;2024-03-02T09:26:42;16.67;;;7.97;;
66521;SDS011;53349;53.538;8.584;2024-03-02T09:29:07;16.60;;;8.07;;
66521;SDS011;53349;53.538;8.584;2024-03-02T09:31:32;15.10;;;7.07;;
66521;SDS011;53349;53.538;8.584;2024-03-02T09:33:57;17.50;;;8.37;;
66521;SDS011;53349;53.538;8.584;2024-03-02T09:36:23;15.27;;;7.57;;
66521;SDS011;53349;53.538;8.584;2024-03-02T09:38:48;15.93;;;7.70;;
66521;SDS011;53349;53.538;8.584;2024-03-02T09:41:16;15.90;;;7.90;;
66521;SDS011;53349;53.538;8.584;2024-03-02T09:43:42;16.17;;;7.93;;
66521;SDS011;53349;53.538;8.584;2024-03-02T09:46:10;16.83;;;7.67;;
66521;SDS011;53349;53.538;8.584;2024-03-02T09:48:35;15.02;;;7.60;;
66521;SDS011;53349;53.538;8.584;2024-03-02T09:51:01;14.73;;;7.10;;
66521;SDS011;53349;53.538;8.584;2024-03-02T09:53:27;16.10;;;7.60;;
66521;SDS011;53349;53.538;8.584;2024-03-02T09:55:54;13.50;;;7.20;;
66521;SDS011;53349;53.538;8.584;2024-03-02T09:58:19;13.73;;;7.20;;
66521;SDS011;53349;53.538;8.584;2024-03-02T10:00:45;14.33;;;7.23;;
66521;SDS011;53349;53.538;8.584;2024-03-02T10:03:13;14.63;;;7.87;;
66521;SDS011;53349;53.538;8.584;2024-03-02T10:05:38;13.85;;;7.25;;
66521;SDS011;53349;53.538;8.584;2024-03-02T10:08:03;14.20;;;7.60;;
66521;SDS011;53349;53.538;8.584;2024-03-02T10:10:38;12.30;;;6.50;;
66521;SDS011;53349;53.538;8.584;2024-03-02T10:13:04;14.27;;;7.40;;
66521;SDS011;53349;53.538;8.584;2024-03-02T10:15:29;14.57;;;7.17;;
66521;SDS011;53349;53.538;8.584;2024-03-02T10:17:55;13.33;;;6.47;;
66521;SDS011;53349;53.538;8.584;2024-03-02T10:20:24;12.77;;;6.33;;
66521;SDS011;53349;53.538;8.584;2024-03-02T10:22:49;11.25;;;6.10;;
66521;SDS011;53349;53.538;8.584;2024-03-02T10:25:30;11.53;;;6.20;;
66521;SDS011;53349;53.538;8.584;2024-03-02T10:27:57;10.52;;;5.57;;
66521;SDS011;53349;53.538;8.584;2024-03-02T10:30:22;11.70;;;5.88;;
66521;SDS011;53349;53.538;8.584;2024-03-02T10:32:48;10.53;;;5.60;;
66521;SDS011;53349;53.538;8.584;2024-03-02T10:35:14;9.93;;;5.23;;
66521;SDS011;53349;53.538;8.584;2024-03-02T10:37:39;12.43;;;5.32;;
66521;SDS011;53349;53.538;8.584;2024-03-02T10:40:05;7.18;;;4.43;;
66521;SDS011;53349;53.538;8.584;2024-03-02T10:42:31;8.67;;;4.37;;
66521;SDS011;53349;53.538;8.584;2024-03-02T10:44:56;8.53;;;4.20;;
66521;SDS011;53349;53.538;8.584;2024-03-02T10:47:22;7.83;;;3.97;;
66521;SDS011;53349;53.538;8.584;2024-03-02T10:49:48;8.20;;;4.63;;
66521;SDS011;53349;53.538;8.584;2024-03-02T10:52:16;8.25;;;4.45;;
66521;SDS011;53349;53.538;8.584;2024-03-02T10:54:41;9.27;;;4.30;;
66521;SDS011;53349;53.538;8.584;2024-03-02T10:57:07;8.60;;;4.60;;
66521;SDS011;53349;53.538;8.584;2024-03-02T10:59:36;9.95;;;4.55;;
66521;SDS011;53349;53.538;8.584;2024-03-02T11:09:50;9.77;;;5.00;;
66521;SDS011;53349;53.538;8.584;2024-03-02T11:12:19;8.32;;;4.70;;
66521;SDS011;53349;53.538;8.584;2024-03-02T11:14:47;11.23;;;5.07;;
66521;SDS011;53349;53.538;8.584;2024-03-02T12:27:21;11.20;;;5.43;;
66521;SDS011;53349;53.538;8.584;2024-03-02T12:29:47;15.47;;;6.10;;
66521;SDS011;53349;53.538;8.584;2024-03-02T12:34:37;16.60;;;5.78;;
66521;SDS011;53349;53.538;8.584;2024-03-02T12:37:03;11.68;;;5.90;;
66521;SDS011;53349;53.538;8.584;2024-03-02T12:39:29;12.07;;;5.63;;
66521;SDS011;53349;53.538;8.584;2024-03-02T12:41:54;14.07;;;6.27;;
66521;SDS011;53349;53.538;8.584;2024-03-02T12:44:19;12.93;;;5.87;;
66521;SDS011;53349;53.538;8.584;2024-03-02T12:46:45;11.05;;;5.78;;
66521;SDS011;53349;53.538;8.584;2024-03-02T12:49:13;12.48;;;6.75;;
66521;SDS011;53349;53.538;8.584;2024-03-02T12:51:40;13.40;;;5.95;;
66521;SDS011;53349;53.538;8.584;2024-03-02T12:54:07;11.10;;;5.80;;
66521;SDS011;53349;53.538;8.584;2024-03-02T12:56:33;11.40;;;5.57;;
66521;SDS011;53349;53.538;8.584;2024-03-02T12:58:58;11.80;;;5.90;;
66521;SDS011;53349;53.538;8.584;2024-03-02T13:01:24;11.85;;;6.18;;
66521;SDS011;53349;53.538;8.584;2024-03-02T13:03:51;10.80;;;5.88;;
66521;SDS011;53349;53.538;8.584;2024-03-02T13:06:17;14.02;;;6.30;;
66521;SDS011;53349;53.538;8.584;2024-03-02T13:08:44;12.10;;;6.10;;
66521;SDS011;53349;53.538;8.584;2024-03-02T13:11:10;12.07;;;6.00;;
66521;SDS011;53349;53.538;8.584;2024-03-02T13:13:35;13.63;;;6.40;;
66521;SDS011;53349;53.538;8.584;2024-03-02T13:16:00;11.65;;;5.85;;
66521;SDS011;53349;53.538;8.584;2024-03-02T13:18:33;14.25;;;6.07;;
66521;SDS011;53349;53.538;8.584;2024-03-02T13:20:58;12.13;;;5.72;;
66521;SDS011;53349;53.538;8.584;2024-03-02T13:23:24;13.70;;;5.80;;
66521;SDS011;53349;53.538;8.584;2024-03-02T13:25:49;10.65;;;5.35;;
66521;SDS011;53349;53.538;8.584;2024-03-02T13:28:14;11.90;;;5.27;;
66521;SDS011;53349;53.538;8.584;2024-03-02T13:30:40;13.03;;;5.30;;
66521;SDS011;53349;53.538;8.584;2024-03-02T13:33:05;9.80;;;5.33;;
66521;SDS011;53349;53.538;8.584;2024-03-02T13:35:30;11.63;;;5.70;;
66521;SDS011;53349;53.538;8.584;2024-03-02T13:37:56;12.13;;;5.33;;
66521;SDS011;53349;53.538;8.584;2024-03-02T13:40:21;11.13;;;5.60;;
66521;SDS011;53349;53.538;8.584;2024-03-02T13:42:47;12.07;;;5.40;;
66521;SDS011;53349;53.538;8.584;2024-03-02T13:45:15;10.82;;;5.20;;
66521;SDS011;53349;53.538;8.584;2024-03-02T13:47:41;12.13;;;5.65;;
66521;SDS011;53349;53.538;8.584;2024-03-02T13:50:07;13.23;;;5.53;;
66521;SDS011;53349;53.538;8.584;2024-03-02T13:52:32;11.50;;;5.60;;
66521;SDS011;53349;53.538;8.584;2024-03-02T13:54:58;12.23;;;5.20;;
66521;SDS011;53349;53.538;8.584;2024-03-02T13:57:24;11.55;;;5.68;;
66521;SDS011;53349;53.538;8.584;2024-03-02T13:59:50;11.43;;;4.90;;
66521;SDS011;53349;53.538;8.584;2024-03-02T14:02:15;11.37;;;5.00;;
66521;SDS011;53349;53.538;8.584;2024-03-02T14:04:41;11.35;;;5.32;;
66521;SDS011;53349;53.538;8.584;2024-03-02T14:07:06;10.93;;;5.10;;
66521;SDS011;53349;53.538;8.584;2024-03-02T14:09:32;10.77;;;4.97;;
66521;SDS011;53349;53.538;8.584;2024-03-02T14:11:58;12.75;;;4.90;;
66521;SDS011;53349;53.538;8.584;2024-03-02T14:14:23;9.70;;;4.53;;
66521;SDS011;53349;53.538;8.584;2024-03-02T14:16:49;9.07;;;5.13;;
66521;SDS011;53349;53.538;8.584;2024-03-02T14:19:14;11.10;;;4.72;;
66521;SDS011;53349;53.538;8.584;2024-03-02T14:21:40;9.27;;;4.70;;
66521;SDS011;53349;53.538;8.584;2024-03-02T14:24:05;13.18;;;5.43;;
66521;SDS011;53349;53.538;8.584;2024-03-02T14:26:31;10.07;;;5.43;;
66521;SDS011;53349;53.538;8.584;2024-03-02T14:28:56;15.97;;;5.07;;
66521;SDS011;53349;53.538;8.584;2024-03-02T14:31:21;8.27;;;3.97;;
66521;SDS011;53349;53.538;8.584;2024-03-02T14:33:47;8.93;;;3.90;;
66521;SDS011;53349;53.538;8.584;2024-03-02T14:36:12;9.17;;;4.13;;
66521;SDS011;53349;53.538;8.584;2024-03-02T14:38:38;10.20;;;4.28;;
66521;SDS011;53349;53.538;8.584;2024-03-02T14:41:04;8.77;;;4.10;;
66521;SDS011;53349;53.538;8.584;2024-03-02T14:43:29;9.73;;;4.47;;
66521;SDS011;53349;53.538;8.584;2024-03-02T14:45:55;11.17;;;5.07;;
66521;SDS011;53349;53.538;8.584;2024-03-02T14:48:21;9.75;;;4.35;;
66521;SDS011;53349;53.538;8.584;2024-03-02T14:50:46;9.37;;;3.40;;
66521;SDS011;53349;53.538;8.584;2024-03-02T14:53:12;8.98;;;4.10;;
66521;SDS011;53349;53.538;8.584;2024-03-02T14:55:37;7.85;;;3.60;;
66521;SDS011;53349;53.538;8.584;2024-03-02T14:58:03;8.87;;;3.90;;
66521;SDS011;53349;53.538;8.584;2024-03-02T15:00:28;7.93;;;3.87;;
66521;SDS011;53349;53.538;8.584;2024-03-02T15:02:56;8.32;;;3.85;;
66521;SDS011;53349;53.538;8.584;2024-03-02T15:05:22;7.93;;;3.50;;
66521;SDS011;53349;53.538;8.584;2024-03-02T15:07:47;8.82;;;3.22;;
66521;SDS011;53349;53.538;8.584;2024-03-02T15:10:12;7.87;;;3.47;;
66521;SDS011;53349;53.538;8.584;2024-03-02T15:12:38;9.57;;;3.47;;
66521;SDS011;53349;53.538;8.584;2024-03-02T15:15:03;8.07;;;3.30;;
66521;SDS011;53349;53.538;8.584;2024-03-02T15:17:29;8.77;;;3.30;;
66521;SDS011;53349;53.538;8.584;2024-03-02T15:19:55;7.65;;;3.47;;
66521;SDS011;53349;53.538;8.584;2024-03-02T15:22:20;8.27;;;3.20;;
66521;SDS011;53349;53.538;8.584;2024-03-02T15:24:45;7.50;;;3.50;;
66521;SDS011;53349;53.538;8.584;2024-03-02T15:27:11;8.90;;;4.03;;
66521;SDS011;53349;53.538;8.584;2024-03-02T15:29:36;9.38;;;3.60;;
66521;SDS011;53349;53.538;8.584;2024-03-02T15:32:02;7.47;;;3.27;;
66521;SDS011;53349;53.538;8.584;2024-03-02T15:34:28;8.32;;;3.50;;
66521;SDS011;53349;53.538;8.584;2024-03-02T15:36:53;8.07;;;4.00;;
66521;SDS011;53349;53.538;8.584;2024-03-02T15:39:18;6.17;;;3.23;;
66521;SDS011;53349;53.538;8.584;2024-03-02T15:41:44;7.10;;;3.40;;
66521;SDS011;53349;53.538;8.584;2024-03-02T15:44:10;7.35;;;3.35;;
66521;SDS011;53349;53.538;8.584;2024-03-02T15:46:35;8.50;;;4.10;;
66521;SDS011;53349;53.538;8.584;2024-03-02T15:49:01;8.82;;;3.75;;